Time;durP1;ratioP1;P1;durP2;ratioP2;P2;SDS_P1;SDS_P2;PMS_P1;PMS_P2;Temp;Humidity;BMP_temperature;BMP_pressure;BME280_temperature;BME280_humidity;BME280_pressure;Samples;Min_cycle;Max_cycle;Signal;HPM_P1;HPM_P2
2022/09/05 00:02:03;;;;;;;4.35;0.65;;;12.60;99.90;;;;;;5037047;28;20037;-76
2022/09/05 00:04:56;;;;;;;4.03;0.60;;;12.70;99.90;;;;;;5037235;28;20033;-76
2022/09/05 00:07:48;;;;;;;2.97;0.75;;;12.70;99.90;;;;;;5017403;28;20033;-80
2022/09/05 00:10:39;;;;;;;1.52;0.73;;;12.80;99.90;;;;;;5036754;28;20021;-77
2022/09/05 00:13:16;;;;;;;2.03;0.77;;;12.80;99.90;;;;;;5036954;28;20029;-76
2022/09/05 00:16:08;;;;;;;3.70;1.05;;;12.80;99.90;;;;;;5040554;28;20048;-75
2022/09/05 00:18:52;;;;;;;1.20;0.50;;;12.80;99.90;;;;;;5046733;28;20389;-75
2022/09/05 00:21:26;;;;;;;1.08;0.60;;;12.80;99.90;;;;;;5045209;28;20520;-74
2022/09/05 00:23:56;;;;;;;3.25;0.35;;;12.90;99.90;;;;;;5042689;28;20037;-75
2022/09/05 00:26:59;;;;;;;2.28;0.50;;;12.90;99.90;;;;;;5045767;28;20433;-76
2022/09/05 00:29:46;;;;;;;6.65;0.63;;;12.90;99.90;;;;;;5044633;28;20533;-75
2022/09/05 00:32:26;;;;;;;1.52;0.40;;;13.10;99.90;;;;;;5040482;28;20076;-74
2022/09/05 00:35:00;;;;;;;1.67;0.60;;;13.20;99.90;;;;;;5046153;28;20064;-76
2022/09/05 00:37:44;;;;;;;3.55;0.82;;;13.30;99.90;;;;;;5046040;28;20017;-76
2022/09/05 00:40:19;;;;;;;3.35;0.70;;;13.30;99.90;;;;;;5046433;28;20025;-75
2022/09/05 00:42:55;;;;;;;2.47;0.82;;;13.20;99.90;;;;;;5045629;28;20060;-75
2022/09/05 00:46:01;;;;;;;1.77;0.75;;;13.30;99.90;;;;;;5041886;28;20038;-75
2022/09/05 00:48:49;;;;;;;3.53;1.15;;;13.30;99.90;;;;;;5038022;28;20032;-75
2022/09/05 00:51:34;;;;;;;6.40;0.90;;;13.40;99.90;;;;;;5044182;28;20037;-76
2022/09/05 00:54:29;;;;;;;3.63;0.93;;;13.50;99.90;;;;;;5033384;28;20013;-75
2022/09/05 00:57:21;;;;;;;1.85;0.70;;;13.50;99.90;;;;;;5045803;28;20033;-75
2022/09/05 01:00:11;;;;;;;3.75;0.47;;;13.40;99.90;;;;;;5045316;28;20109;-75
2022/09/05 01:03:15;;;;;;;3.65;0.60;;;13.40;99.90;;;;;;5044131;28;20536;-75
2022/09/05 01:06:16;;;;;;;1.95;0.40;;;13.40;99.90;;;;;;5042974;28;20036;-74
2022/09/05 01:09:01;;;;;;;3.47;0.90;;;13.50;99.90;;;;;;5044732;28;20028;-76
2022/09/05 01:11:56;;;;;;;2.90;0.82;;;13.60;99.90;;;;;;5045373;28;20390;-76
2022/09/05 01:14:33;;;;;;;2.03;0.73;;;13.60;99.90;;;;;;5044586;28;20009;-75
2022/09/05 01:17:27;;;;;;;1.63;0.43;;;13.60;99.90;;;;;;5052729;28;20488;-76
2022/09/05 01:20:35;;;;;;;1.92;0.47;;;13.60;99.90;;;;;;5055017;28;20032;-76
2022/09/05 01:23:30;;;;;;;2.70;0.52;;;13.70;99.90;;;;;;5055281;28;20029;-76
2022/09/05 01:26:03;;;;;;;2.65;0.93;;;13.80;99.90;;;;;;5055651;28;20068;-76
2022/09/05 01:29:13;;;;;;;1.35;0.50;;;13.80;99.90;;;;;;5055518;28;20052;-76
2022/09/05 01:31:52;;;;;;;2.08;0.93;;;13.80;99.90;;;;;;5055230;28;20078;-76
2022/09/05 01:34:23;;;;;;;3.70;0.63;;;13.80;99.90;;;;;;5055014;28;20402;-76
2022/09/05 01:37:00;;;;;;;2.55;0.30;;;13.80;99.90;;;;;;5054853;28;20013;-75
2022/09/05 01:39:57;;;;;;;1.40;0.63;;;13.90;99.90;;;;;;5054992;28;20025;-76
2022/09/05 01:42:40;;;;;;;1.58;0.60;;;14.00;99.90;;;;;;5045880;28;20029;-77
2022/09/05 01:45:44;;;;;;;2.80;0.70;;;14.00;99.90;;;;;;5043512;28;20445;-74
2022/09/05 01:49:13;;;;;;;2.10;0.43;;;14.10;99.90;;;;;;5044337;28;20024;-75
2022/09/05 01:52:08;;;;;;;1.73;0.55;;;14.10;99.90;;;;;;4973047;28;20607;-75
2022/09/05 01:54:36;;;;;;;2.13;0.70;;;14.20;99.90;;;;;;4969955;28;20049;-76
2022/09/05 01:57:23;;;;;;;3.35;0.70;;;14.20;99.90;;;;;;5026325;28;20033;-76
2022/09/05 02:00:09;;;;;;;2.28;0.75;;;14.30;99.90;;;;;;5051391;28;20127;-76
2022/09/05 02:03:13;;;;;;;2.50;0.52;;;14.20;99.90;;;;;;5050151;28;20087;-75
2022/09/05 02:05:52;;;;;;;0.82;0.30;;;14.20;99.90;;;;;;5050170;28;20108;-76
2022/09/05 02:08:46;;;;;;;3.22;0.82;;;14.20;99.90;;;;;;5050671;28;20021;-74
2022/09/05 02:11:15;;;;;;;0.90;0.50;;;14.10;99.90;;;;;;5052145;28;20064;-75
2022/09/05 02:13:51;;;;;;;2.10;0.70;;;14.10;99.90;;;;;;5049927;28;20025;-76
2022/09/05 02:16:31;;;;;;;0.60;0.30;;;14.20;99.90;;;;;;5049055;28;20019;-77
2022/09/05 02:19:05;;;;;;;2.40;0.50;;;14.30;99.90;;;;;;5049931;28;20094;-76
2022/09/05 02:21:36;;;;;;;2.33;0.80;;;14.30;99.90;;;;;;5051920;28;20043;-74
2022/09/05 02:24:24;;;;;;;2.00;0.57;;;14.40;99.90;;;;;;5051069;28;20087;-77
2022/09/05 02:27:09;;;;;;;4.68;0.68;;;14.50;99.90;;;;;;5047982;28;20037;-74
2022/09/05 02:29:48;;;;;;;6.00;0.50;;;14.40;99.90;;;;;;5048239;28;20021;-76
2022/09/05 02:32:37;;;;;;;1.13;0.55;;;14.30;99.90;;;;;;5050689;28;20021;-76
2022/09/05 02:35:22;;;;;;;3.25;0.40;;;14.30;99.90;;;;;;5049402;28;20446;-76
2022/09/05 02:38:24;;;;;;;2.85;0.57;;;14.30;99.90;;;;;;5049016;28;20021;-75
2022/09/05 02:41:18;;;;;;;1.23;0.60;;;14.40;99.90;;;;;;5049024;28;20021;-77
2022/09/05 02:43:55;;;;;;;1.08;0.47;;;14.50;99.90;;;;;;5051375;28;20029;-76
2022/09/05 02:46:50;;;;;;;0.68;0.40;;;14.50;99.90;;;;;;5052849;28;20469;-76
2022/09/05 02:49:21;;;;;;;2.30;0.50;;;14.50;99.90;;;;;;5030242;28;20056;-76
2022/09/05 02:52:00;;;;;;;2.67;0.57;;;14.40;99.90;;;;;;5048853;28;20219;-76
2022/09/05 02:54:39;;;;;;;1.58;0.77;;;14.40;99.90;;;;;;5052459;28;20021;-74
2022/09/05 02:57:38;;;;;;;1.58;0.75;;;14.50;99.90;;;;;;5052527;28;20382;-76
2022/09/05 03:00:16;;;;;;;0.85;0.40;;;14.70;99.90;;;;;;5032963;28;20041;-75
2022/09/05 03:02:53;;;;;;;3.58;0.50;;;14.80;99.90;;;;;;5045104;28;20028;-75
2022/09/05 03:05:23;;;;;;;3.63;0.68;;;14.90;99.90;;;;;;5041543;28;20048;-75
2022/09/05 03:08:11;;;;;;;1.63;0.80;;;14.90;99.90;;;;;;5051815;28;20005;-76
2022/09/05 03:11:19;;;;;;;1.17;0.40;;;14.80;99.90;;;;;;5051107;28;20094;-76
2022/09/05 03:14:17;;;;;;;1.83;0.68;;;14.80;99.90;;;;;;5049545;28;20474;-75
2022/09/05 03:17:30;;;;;;;1.52;0.57;;;14.70;99.90;;;;;;5049860;28;20029;-76
2022/09/05 03:20:00;;;;;;;1.63;0.60;;;14.80;99.90;;;;;;5050824;28;20037;-76
2022/09/05 03:22:56;;;;;;;2.28;0.65;;;14.90;99.90;;;;;;5050979;28;20183;-76
2022/09/05 03:26:08;;;;;;;5.88;0.65;;;15.00;99.90;;;;;;5050712;28;20037;-75
2022/09/05 03:28:53;;;;;;;0.65;0.52;;;15.10;99.90;;;;;;5049435;28;20059;-76
2022/09/05 03:32:00;;;;;;;1.58;0.47;;;15.00;99.90;;;;;;5047870;28;20100;-75
2022/09/05 03:34:46;;;;;;;2.25;0.52;;;15.00;99.90;;;;;;5049094;28;20037;-75
2022/09/05 03:37:31;;;;;;;4.38;0.52;;;14.90;99.90;;;;;;5050707;28;20048;-75
2022/09/05 03:40:05;;;;;;;2.58;0.68;;;14.70;99.90;;;;;;5051360;28;20017;-76
2022/09/05 03:42:43;;;;;;;1.38;0.55;;;14.60;99.90;;;;;;5049691;28;20032;-75
2022/09/05 03:45:43;;;;;;;1.75;0.65;;;14.50;99.90;;;;;;5048164;28;20033;-76
2022/09/05 03:48:28;;;;;;;1.05;0.65;;;14.40;99.90;;;;;;5009706;28;20029;-74
2022/09/05 03:51:24;;;;;;;6.72;0.95;;;14.30;99.90;;;;;;5018201;28;20025;-75
2022/09/05 03:54:11;;;;;;;3.15;1.00;;;14.30;99.90;;;;;;5048927;28;20029;-74
2022/09/05 03:57:10;;;;;;;6.22;0.55;;;14.20;99.90;;;;;;5047539;28;20013;-75
2022/09/05 04:00:09;;;;;;;4.72;0.80;;;14.20;99.90;;;;;;5025221;28;20050;-75
2022/09/05 04:02:46;;;;;;;2.20;0.73;;;14.20;99.90;;;;;;5049885;28;20025;-76
2022/09/05 04:05:22;;;;;;;4.88;0.98;;;14.30;99.90;;;;;;5050191;28;20068;-75
2022/09/05 04:08:00;;;;;;;2.05;0.55;;;14.20;99.90;;;;;;5055127;28;20365;-73
2022/09/05 04:10:58;;;;;;;6.03;0.60;;;14.30;99.90;;;;;;5050592;28;20377;-74
2022/09/05 04:13:29;;;;;;;1.95;1.02;;;14.20;99.90;;;;;;5036910;28;20013;-73
2022/09/05 04:16:14;;;;;;;3.67;1.00;;;14.30;99.90;;;;;;5053155;28;20067;-74
2022/09/05 04:18:53;;;;;;;3.20;0.60;;;14.30;99.90;;;;;;5052612;28;20111;-74
2022/09/05 04:21:28;;;;;;;2.88;1.00;;;14.50;99.90;;;;;;5054361;28;20033;-74
2022/09/05 04:24:07;;;;;;;1.85;0.50;;;14.60;99.90;;;;;;5054306;28;20029;-74
2022/09/05 04:26:59;;;;;;;1.13;0.63;;;14.60;99.90;;;;;;5054649;28;20096;-74
2022/09/05 04:29:39;;;;;;;2.67;0.80;;;14.70;99.90;;;;;;5052107;28;20501;-75
2022/09/05 04:32:15;;;;;;;5.55;0.98;;;14.80;99.90;;;;;;5052161;28;20029;-75
2022/09/05 04:35:07;;;;;;;2.67;0.60;;;14.90;99.90;;;;;;5051493;28;20375;-74
2022/09/05 04:37:57;;;;;;;4.22;1.10;;;14.80;99.90;;;;;;5053380;28;20025;-77
2022/09/05 04:40:59;;;;;;;7.57;0.82;;;14.70;99.90;;;;;;5054567;28;20096;-75
2022/09/05 04:43:32;;;;;;;6.45;0.88;;;14.50;99.90;;;;;;5037384;28;20108;-76
2022/09/05 04:45:59;;;;;;;4.68;0.60;;;14.40;99.90;;;;;;5032790;28;20020;-75
2022/09/05 04:48:46;;;;;;;8.40;1.17;;;14.40;99.90;;;;;;5052517;28;20067;-74
2022/09/05 04:51:40;;;;;;;1.73;0.60;;;14.30;99.90;;;;;;5051734;28;20025;-75
2022/09/05 04:54:49;;;;;;;3.53;0.68;;;14.30;99.90;;;;;;5053628;28;20230;-75
2022/09/05 04:57:43;;;;;;;1.15;0.57;;;14.40;99.90;;;;;;4954129;29;20484;-76
2022/09/05 05:00:31;;;;;;;3.17;0.60;;;14.40;99.90;;;;;;5045783;28;20110;-76
2022/09/05 05:03:03;;;;;;;2.92;0.65;;;14.30;99.90;;;;;;5052193;28;20389;-74
2022/09/05 05:05:49;;;;;;;1.50;0.50;;;14.20;99.90;;;;;;5052953;28;20025;-77
2022/09/05 05:08:24;;;;;;;2.80;0.63;;;14.10;99.90;;;;;;5053947;28;20028;-76
2022/09/05 05:10:57;;;;;;;4.40;0.82;;;14.00;99.90;;;;;;5050712;28;20028;-77
2022/09/05 05:13:35;;;;;;;3.30;1.08;;;13.90;99.90;;;;;;5051571;28;20025;-77
2022/09/05 05:16:18;;;;;;;4.15;0.80;;;13.80;99.90;;;;;;5049844;28;20060;-77
2022/09/05 05:19:21;;;;;;;1.55;0.85;;;13.80;99.90;;;;;;5033094;28;20445;-76
2022/09/05 05:21:59;;;;;;;4.53;0.75;;;13.80;99.90;;;;;;5031774;28;20044;-76
2022/09/05 05:24:42;;;;;;;3.13;1.08;;;13.70;99.90;;;;;;5051333;28;20029;-76
2022/09/05 05:28:05;;;;;;;2.65;1.40;;;13.70;99.90;;;;;;5050692;28;20489;-75
2022/09/05 05:30:33;;;;;;;4.72;0.73;;;13.70;99.90;;;;;;4976987;28;20117;-75
2022/09/05 05:33:09;;;;;;;4.85;1.35;;;13.70;99.90;;;;;;4975372;28;20498;-75
2022/09/05 05:35:37;;;;;;;3.33;1.08;;;13.70;99.90;;;;;;5015753;28;20124;-76
2022/09/05 05:38:14;;;;;;;1.42;0.60;;;13.80;99.90;;;;;;5049795;28;20023;-75
2022/09/05 05:40:50;;;;;;;3.30;0.75;;;13.80;99.90;;;;;;5051818;28;20017;-76
2022/09/05 05:43:46;;;;;;;4.05;0.80;;;13.70;99.90;;;;;;5051432;28;20032;-75
2022/09/05 05:46:24;;;;;;;5.70;0.80;;;13.70;99.90;;;;;;5042603;28;20037;-75
2022/09/05 05:48:54;;;;;;;1.98;0.60;;;13.60;99.90;;;;;;5053703;28;20036;-76
2022/09/05 05:51:36;;;;;;;4.03;0.65;;;13.60;99.90;;;;;;5054501;28;20495;-76
2022/09/05 05:54:36;;;;;;;7.40;1.17;;;13.60;99.90;;;;;;5054967;28;20027;-76
2022/09/05 05:57:17;;;;;;;2.05;0.40;;;13.60;99.90;;;;;;5054147;28;20029;-76
2022/09/05 06:00:00;;;;;;;2.28;0.50;;;13.70;99.90;;;;;;5053355;28;20499;-76
2022/09/05 06:02:48;;;;;;;2.60;0.88;;;13.70;99.90;;;;;;5052241;28;20035;-76
2022/09/05 06:05:38;;;;;;;2.60;0.68;;;13.80;99.90;;;;;;5052040;28;20036;-76
2022/09/05 06:08:36;;;;;;;3.33;1.23;;;13.80;99.90;;;;;;5051987;28;20109;-75
2022/09/05 06:11:21;;;;;;;2.78;1.10;;;13.80;99.90;;;;;;5052313;28;20103;-75
2022/09/05 06:14:07;;;;;;;1.57;0.50;;;13.80;99.90;;;;;;5052819;28;20025;-75
2022/09/05 06:16:52;;;;;;;2.72;0.57;;;13.90;99.90;;;;;;5054021;28;20100;-76
2022/09/05 06:19:51;;;;;;;2.65;0.68;;;13.90;99.90;;;;;;5054424;28;20027;-76
2022/09/05 06:22:39;;;;;;;3.13;0.70;;;13.80;99.90;;;;;;5054226;28;20573;-76
2022/09/05 06:25:43;;;;;;;2.40;0.80;;;13.70;99.90;;;;;;5023600;28;20099;-75
2022/09/05 06:28:22;;;;;;;2.83;0.90;;;13.60;99.90;;;;;;5054015;28;20035;-77
2022/09/05 06:31:20;;;;;;;2.58;0.88;;;13.60;99.90;;;;;;5034166;28;20033;-76
2022/09/05 06:33:53;;;;;;;2.83;0.90;;;13.50;99.90;;;;;;5054095;28;20045;-76
2022/09/05 06:36:47;;;;;;;9.05;1.58;;;13.50;99.90;;;;;;5053687;28;20029;-76
2022/09/05 06:39:51;;;;;;;5.68;1.25;;;13.50;99.90;;;;;;5053520;28;20070;-75
2022/09/05 06:42:25;;;;;;;5.07;1.23;;;13.50;99.90;;;;;;5053729;28;20024;-76
2022/09/05 06:45:29;;;;;;;3.17;1.10;;;13.50;99.90;;;;;;5053716;28;20115;-76
2022/09/05 06:48:09;;;;;;;1.60;0.52;;;13.50;99.90;;;;;;5053315;28;20444;-76
2022/09/05 06:51:03;;;;;;;3.60;0.77;;;13.40;99.90;;;;;;5053261;28;20107;-76
2022/09/05 06:53:50;;;;;;;1.90;0.80;;;13.40;99.90;;;;;;5053445;28;20465;-76
2022/09/05 06:56:32;;;;;;;5.88;1.08;;;13.30;99.90;;;;;;5053286;28;20033;-76
2022/09/05 06:58:59;;;;;;;0.93;0.65;;;13.20;99.90;;;;;;5053249;28;20385;-76
2022/09/05 07:01:33;;;;;;;3.33;1.02;;;13.20;99.90;;;;;;5053215;28;20032;-75
2022/09/05 07:04:20;;;;;;;1.42;0.70;;;13.10;99.90;;;;;;5051679;28;20154;-76
2022/09/05 07:07:14;;;;;;;2.42;0.73;;;13.10;99.90;;;;;;5053211;28;20044;-75
2022/09/05 07:09:50;;;;;;;3.42;0.68;;;13.00;99.90;;;;;;5053499;28;20021;-76
2022/09/05 07:12:29;;;;;;;3.50;0.98;;;13.00;99.90;;;;;;5053401;28;20029;-77
2022/09/05 07:15:09;;;;;;;2.25;0.80;;;12.90;99.90;;;;;;5053306;28;20028;-75
2022/09/05 07:18:12;;;;;;;4.00;0.88;;;12.90;99.90;;;;;;5055315;28;20048;-76
2022/09/05 07:20:57;;;;;;;3.22;0.77;;;12.80;99.90;;;;;;4995485;28;20147;-77
2022/09/05 07:23:44;;;;;;;7.07;0.67;;;12.80;99.90;;;;;;5049453;28;20041;-78
2022/09/05 07:26:13;;;;;;;2.88;0.80;;;12.80;99.90;;;;;;5053267;28;20482;-77
2022/09/05 07:28:47;;;;;;;1.27;0.60;;;12.70;99.90;;;;;;5053056;28;20025;-77
2022/09/05 07:31:18;;;;;;;4.72;1.42;;;12.70;99.90;;;;;;5051518;28;20024;-77
2022/09/05 07:33:47;;;;;;;2.47;0.90;;;12.60;99.90;;;;;;5052459;28;20119;-75
2022/09/05 07:36:23;;;;;;;7.00;1.88;;;12.60;99.90;;;;;;5052898;28;20021;-77
2022/09/05 07:38:54;;;;;;;;;;;12.60;99.90;;;;;;5051998;28;20100;-76
2022/09/05 07:41:30;;;;;;;5.32;1.05;;;12.50;99.90;;;;;;5048519;28;19905;-77
2022/09/05 07:44:11;;;;;;;5.78;0.98;;;12.60;99.90;;;;;;5020427;28;20029;-77
2022/09/05 07:46:40;;;;;;;6.07;1.10;;;12.50;99.90;;;;;;5053113;28;20021;-77
2022/09/05 07:49:16;;;;;;;5.00;0.93;;;12.50;99.90;;;;;;5051456;28;20477;-75
2022/09/05 07:52:12;;;;;;;2.42;0.80;;;12.40;99.90;;;;;;5032324;28;20033;-76
2022/09/05 07:54:41;;;;;;;3.22;0.93;;;12.40;99.90;;;;;;5056085;28;20023;-77
2022/09/05 07:57:11;;;;;;;2.08;0.70;;;12.40;99.90;;;;;;5053698;28;20079;-77
2022/09/05 07:59:40;;;;;;;5.93;1.10;;;12.40;99.90;;;;;;5052301;28;20100;-78
2022/09/05 08:02:11;;;;;;;3.60;1.17;;;12.30;99.90;;;;;;5049665;28;20048;-78
2022/09/05 08:04:40;;;;;;;5.68;1.20;;;12.30;99.90;;;;;;5054895;28;20112;-77
2022/09/05 08:07:36;;;;;;;3.47;1.13;;;12.30;99.90;;;;;;5055359;28;20036;-78
2022/09/05 08:10:16;;;;;;;8.40;1.20;;;12.30;99.90;;;;;;5053477;28;20041;-78
2022/09/05 08:12:53;;;;;;;3.72;1.08;;;12.20;99.90;;;;;;5049840;28;20413;-79
2022/09/05 08:15:27;;;;;;;2.58;0.80;;;12.20;99.90;;;;;;5050068;28;20028;-79
2022/09/05 08:18:43;;;;;;;7.45;0.77;;;12.20;99.90;;;;;;5036977;28;20021;-75
2022/09/05 08:21:19;;;;;;;3.58;1.13;;;12.10;99.90;;;;;;5033485;28;20025;-77
2022/09/05 08:24:19;;;;;;;5.75;1.67;;;12.10;99.90;;;;;;5051165;28;20037;-78
2022/09/05 08:26:53;;;;;;;6.60;1.48;;;12.10;99.90;;;;;;5053042;28;20033;-77
2022/09/05 08:29:56;;;;;;;2.20;0.95;;;12.10;99.90;;;;;;5052983;28;20096;-76
2022/09/05 08:32:40;;;;;;;5.85;1.67;;;12.10;99.90;;;;;;4988723;28;20064;-78
2022/09/05 08:35:20;;;;;;;2.45;1.08;;;12.10;99.90;;;;;;5052451;28;20037;-78
2022/09/05 08:37:49;;;;;;;3.03;1.70;;;12.00;99.90;;;;;;5057212;28;20017;-78
2022/09/05 08:40:29;;;;;;;3.90;1.23;;;12.00;99.90;;;;;;5056086;28;20427;-77
2022/09/05 08:43:10;;;;;;;9.20;1.63;;;12.00;99.90;;;;;;5053866;28;20012;-75
2022/09/05 08:46:01;;;;;;;3.90;1.42;;;11.90;99.90;;;;;;5054181;28;20116;-76
2022/09/05 08:48:37;;;;;;;2.20;0.75;;;11.90;99.90;;;;;;5054412;28;20053;-77
2022/09/05 08:51:17;;;;;;;2.17;1.52;;;11.90;99.90;;;;;;5052207;28;20036;-76
2022/09/05 08:54:16;;;;;;;6.28;1.38;;;11.80;99.90;;;;;;5051449;28;20025;-76
2022/09/05 08:57:03;;;;;;;3.15;0.98;;;11.80;99.90;;;;;;4979920;28;20031;-78
2022/09/05 08:59:44;;;;;;;6.22;1.50;;;11.80;99.90;;;;;;5051363;28;20412;-77
2022/09/05 09:02:36;;;;;;;5.60;1.42;;;11.80;99.90;;;;;;5062404;28;20025;-77
2022/09/05 09:05:36;;;;;;;2.38;1.00;;;11.80;99.90;;;;;;5053045;28;20039;-78
2022/09/05 09:08:21;;;;;;;8.88;1.30;;;11.70;99.90;;;;;;5053457;28;20017;-77
2022/09/05 09:10:58;;;;;;;1.95;0.70;;;11.70;99.90;;;;;;5052005;28;20524;-78
2022/09/05 09:13:37;;;;;;;3.97;1.63;;;11.60;99.90;;;;;;5051000;28;20059;-78
2022/09/05 09:16:16;;;;;;;5.18;1.27;;;11.60;99.90;;;;;;5051127;28;20025;-77
2022/09/05 09:18:51;;;;;;;4.88;1.67;;;11.60;99.90;;;;;;5051387;28;21125;-78
2022/09/05 09:21:47;;;;;;;7.40;1.27;;;11.50;99.90;;;;;;5052673;28;20609;-78
2022/09/05 09:24:15;;;;;;;5.55;1.05;;;11.50;99.90;;;;;;5051141;28;20032;-78
2022/09/05 09:27:09;;;;;;;3.45;1.15;;;11.50;99.90;;;;;;5052472;28;20074;-77
2022/09/05 09:29:41;;;;;;;5.60;1.40;;;11.50;99.90;;;;;;5037269;28;20486;-78
2022/09/05 09:32:20;;;;;;;6.25;1.20;;;11.50;99.90;;;;;;5050818;28;20110;-77
2022/09/05 09:34:55;;;;;;;3.85;1.50;;;11.50;99.90;;;;;;5050975;28;20505;-75
2022/09/05 09:37:35;;;;;;;;;;;11.50;99.90;;;;;;5052412;28;20559;-77
2022/09/05 09:40:22;;;;;;;5.78;1.60;;;11.50;99.90;;;;;;5053048;28;19915;-77
2022/09/05 09:42:57;;;;;;;5.65;1.48;;;11.50;99.90;;;;;;5052754;28;20025;-77
2022/09/05 09:45:45;;;;;;;3.83;1.42;;;11.40;99.90;;;;;;5051176;28;20044;-77
2022/09/05 09:48:16;;;;;;;5.57;1.52;;;11.40;99.90;;;;;;5049547;28;20017;-77
2022/09/05 09:50:59;;;;;;;4.35;1.42;;;11.40;99.90;;;;;;5050340;28;20070;-77
2022/09/05 09:53:32;;;;;;;7.88;2.05;;;11.30;99.90;;;;;;5051799;28;20071;-78
2022/09/05 09:56:32;;;;;;;5.75;1.90;;;11.30;99.90;;;;;;5052890;28;20060;-78
2022/09/05 09:59:38;;;;;;;3.40;1.48;;;11.30;99.90;;;;;;5052941;28;20466;-78
2022/09/05 10:02:24;;;;;;;8.73;1.88;;;11.30;99.90;;;;;;5035244;28;20028;-76
2022/09/05 10:05:19;;;;;;;6.00;1.60;;;11.30;99.90;;;;;;5048902;28;20032;-77
2022/09/05 10:08:30;;;;;;;4.60;1.45;;;11.30;99.90;;;;;;5051073;28;20019;-77
2022/09/05 10:11:19;;;;;;;5.75;1.80;;;11.30;99.90;;;;;;4975092;28;20020;-78
2022/09/05 10:14:05;;;;;;;5.03;1.95;;;11.30;99.90;;;;;;5050316;28;20020;-78
2022/09/05 10:16:38;;;;;;;5.32;1.65;;;11.20;99.90;;;;;;5052573;28;20351;-78
2022/09/05 10:19:15;;;;;;;9.35;2.42;;;11.20;99.90;;;;;;5052044;28;20373;-78
2022/09/05 10:22:10;;;;;;;4.63;1.80;;;11.20;99.90;;;;;;5053203;28;20017;-77
2022/09/05 10:25:10;;;;;;;4.28;1.40;;;11.20;99.90;;;;;;5049332;28;20029;-76
2022/09/05 10:28:04;;;;;;;2.72;1.40;;;11.10;99.90;;;;;;5049183;28;20014;-76
2022/09/05 10:31:03;;;;;;;6.68;1.65;;;11.10;99.90;;;;;;5051680;28;20021;-75
2022/09/05 10:33:43;;;;;;;3.72;1.60;;;11.00;99.90;;;;;;5049241;28;20021;-77
2022/09/05 10:36:23;;;;;;;5.63;1.75;;;10.90;99.90;;;;;;5051976;28;20025;-78
2022/09/05 10:39:02;;;;;;;5.45;1.67;;;10.80;99.90;;;;;;5052920;28;20043;-76
2022/09/05 10:41:43;;;;;;;6.32;1.77;;;10.80;99.90;;;;;;5052284;28;20029;-78
2022/09/05 10:44:12;;;;;;;5.32;1.98;;;10.70;99.90;;;;;;5050032;28;20545;-78
2022/09/05 10:46:51;;;;;;;3.97;1.08;;;10.70;99.90;;;;;;5050745;28;20367;-77
2022/09/05 10:49:24;;;;;;;4.57;1.45;;;10.60;99.90;;;;;;5051221;28;20104;-78
2022/09/05 10:52:40;;;;;;;6.55;1.67;;;10.50;99.90;;;;;;5048170;28;20020;-78
2022/09/05 10:55:17;;;;;;;6.10;1.70;;;10.50;99.90;;;;;;5018499;28;20035;-78
2022/09/05 10:58:03;;;;;;;3.80;2.03;;;10.50;99.90;;;;;;5048249;28;20039;-77
2022/09/05 11:00:48;;;;;;;;;;;10.40;99.90;;;;;;5051395;28;20391;-77
2022/09/05 11:03:24;;;;;;;5.22;2.08;;;10.40;99.90;;;;;;5051452;28;20301;-78
2022/09/05 11:06:00;;;;;;;6.55;1.42;;;10.30;99.90;;;;;;5051242;28;20060;-77
2022/09/05 11:08:40;;;;;;;5.90;1.33;;;10.30;99.90;;;;;;5049178;28;20017;-79
2022/09/05 11:11:12;;;;;;;4.45;1.85;;;10.30;99.90;;;;;;5047428;28;20044;-78
2022/09/05 11:13:53;;;;;;;7.15;1.90;;;10.20;99.90;;;;;;5049693;28;20025;-77
2022/09/05 11:16:49;;;;;;;3.20;1.60;;;10.20;99.90;;;;;;5048694;28;20057;-77
2022/09/05 11:19:44;;;;;;;3.15;1.17;;;10.20;99.90;;;;;;5050996;28;20092;-79
2022/09/05 11:22:14;;;;;;;5.38;1.90;;;10.20;99.90;;;;;;5049174;28;20489;-75
2022/09/05 11:24:48;;;;;;;3.70;1.60;;;10.20;99.90;;;;;;5049265;28;20024;-76
2022/09/05 11:27:50;;;;;;;2.83;1.40;;;10.20;99.90;;;;;;5047435;28;20036;-79
2022/09/05 11:30:29;;;;;;;4.63;1.85;;;10.30;99.90;;;;;;4995500;28;20029;-77
2022/09/05 11:33:18;;;;;;;12.70;2.55;;;10.30;99.90;;;;;;5049765;28;20021;-76
2022/09/05 11:35:58;;;;;;;7.97;2.75;;;10.30;99.90;;;;;;5050124;28;20112;-78
2022/09/05 11:38:44;;;;;;;4.88;1.95;;;10.40;99.90;;;;;;5050687;28;20052;-76
2022/09/05 11:41:24;;;;;;;;;;;10.40;99.90;;;;;;5050327;28;20021;-78
2022/09/05 11:44:09;;;;;;;11.00;1.80;;;10.40;99.90;;;;;;5051101;28;19908;-78
2022/09/05 11:46:44;;;;;;;3.30;1.65;;;10.40;99.90;;;;;;5049345;28;20025;-77
2022/09/05 11:49:39;;;;;;;6.60;1.60;;;10.30;99.90;;;;;;5050028;28;20017;-77
2022/09/05 11:52:39;;;;;;;6.10;1.85;;;10.40;99.90;;;;;;5050152;28;20120;-77
2022/09/05 11:55:34;;;;;;;4.45;1.88;;;10.40;99.90;;;;;;5042027;28;20494;-78
2022/09/05 11:58:07;;;;;;;4.95;1.45;;;10.30;99.90;;;;;;5048025;28;20025;-77
2022/09/05 12:00:50;;;;;;;4.50;1.67;;;10.30;99.90;;;;;;5048798;28;20488;-78
2022/09/05 12:03:40;;;;;;;3.03;1.60;;;10.20;99.90;;;;;;5048115;28;20021;-77
2022/09/05 12:06:29;;;;;;;5.32;1.30;;;10.20;99.90;;;;;;5050028;28;20482;-78
2022/09/05 12:09:26;;;;;;;3.08;1.05;;;10.10;99.90;;;;;;5049102;28;20482;-78
2022/09/05 12:12:06;;;;;;;6.22;1.70;;;10.10;99.90;;;;;;5050520;28;20017;-77
2022/09/05 12:14:44;;;;;;;5.07;1.55;;;10.00;99.90;;;;;;5046390;28;20480;-77
2022/09/05 12:17:27;;;;;;;3.38;1.88;;;10.00;99.90;;;;;;5016173;28;20433;-78
2022/09/05 12:20:05;;;;;;;5.07;1.60;;;10.00;99.90;;;;;;5035228;28;20513;-78
2022/09/05 12:22:38;;;;;;;4.22;2.08;;;10.00;99.90;;;;;;5034121;28;20561;-77
2022/09/05 12:25:29;;;;;;;5.40;1.80;;;10.00;99.90;;;;;;5034594;28;20486;-76
2022/09/05 12:28:10;;;;;;;3.47;1.38;;;10.00;99.90;;;;;;5034769;28;20018;-77
2022/09/05 12:30:40;;;;;;;8.63;2.40;;;9.90;99.90;;;;;;5037863;28;20104;-76
2022/09/05 12:33:14;;;;;;;9.30;1.88;;;10.00;99.90;;;;;;5037891;28;20010;-76
2022/09/05 12:35:45;;;;;;;5.55;1.63;;;10.00;99.90;;;;;;5043970;28;20498;-78
2022/09/05 12:38:46;;;;;;;3.92;1.67;;;10.00;99.90;;;;;;5044992;28;20018;-77
2022/09/05 12:41:17;;;;;;;4.90;1.80;;;9.90;99.90;;;;;;5046103;28;20044;-77
2022/09/05 12:43:51;;;;;;;7.22;2.00;;;10.00;99.90;;;;;;5046403;28;20106;-77
2022/09/05 12:46:29;;;;;;;4.13;1.27;;;10.00;99.90;;;;;;5044979;28;20036;-77
2022/09/05 12:49:02;;;;;;;5.55;1.58;;;10.00;99.90;;;;;;5045493;28;20017;-77
2022/09/05 12:51:36;;;;;;;3.17;1.38;;;10.00;99.90;;;;;;5032456;28;20553;-77
2022/09/05 12:54:26;;;;;;;4.28;2.05;;;10.00;99.90;;;;;;5055640;28;20032;-78
2022/09/05 12:57:06;;;;;;;2.13;1.50;;;10.00;99.90;;;;;;5055320;28;20090;-77
2022/09/05 12:59:36;;;;;;;3.58;1.58;;;10.00;99.90;;;;;;5055696;28;20025;-78
2022/09/05 13:02:08;;;;;;;9.60;1.73;;;9.90;99.90;;;;;;5055366;28;20021;-78
2022/09/05 13:04:39;;;;;;;4.72;1.35;;;9.90;99.90;;;;;;5055392;28;20033;-77
2022/09/05 13:07:17;;;;;;;5.68;1.33;;;9.80;99.90;;;;;;5055553;28;20117;-78
2022/09/05 13:09:52;;;;;;;2.80;1.33;;;9.80;99.90;;;;;;5055338;28;20051;-78
2022/09/05 13:12:58;;;;;;;3.20;1.55;;;9.80;99.90;;;;;;5055369;28;20032;-77
2022/09/05 13:15:34;;;;;;;4.53;2.17;;;9.70;99.90;;;;;;5055288;28;20017;-78
2022/09/05 13:18:13;;;;;;;3.35;1.23;;;9.60;99.90;;;;;;5055271;28;20021;-78
2022/09/05 13:21:01;;;;;;;2.85;1.63;;;9.60;99.90;;;;;;5055491;28;20166;-78
2022/09/05 13:23:40;;;;;;;9.10;1.88;;;9.50;99.90;;;;;;5055282;28;20025;-78
2022/09/05 13:26:36;;;;;;;3.05;1.58;;;9.50;99.90;;;;;;5037746;28;20620;-77
2022/09/05 13:29:17;;;;;;;9.07;1.67;;;9.50;99.90;;;;;;5046930;28;20567;-77
2022/09/05 13:31:52;;;;;;;5.85;2.20;;;9.40;99.90;;;;;;5054961;28;20028;-77
2022/09/05 13:34:46;;;;;;;4.95;1.15;;;9.40;99.90;;;;;;5054615;28;20083;-78
2022/09/05 13:37:28;;;;;;;4.05;1.65;;;9.40;99.90;;;;;;5054394;28;20044;-78
2022/09/05 13:40:26;;;;;;;6.35;1.52;;;9.50;99.90;;;;;;5054521;28;20411;-78
2022/09/05 13:43:20;;;;;;;4.28;1.42;;;9.50;99.90;;;;;;5042859;28;20032;-78
2022/09/05 13:46:02;;;;;;;2.75;1.15;;;9.50;99.90;;;;;;5048781;28;20474;-79
2022/09/05 13:48:35;;;;;;;9.50;2.60;;;9.60;99.90;;;;;;5054874;28;20510;-78
2022/09/05 13:51:38;;;;;;;2.90;1.30;;;9.60;99.90;;;;;;5036759;28;20079;-78
2022/09/05 13:54:15;;;;;;;5.78;1.45;;;9.60;99.90;;;;;;4993211;28;20496;-78
2022/09/05 13:57:06;;;;;;;8.65;1.50;;;9.60;99.90;;;;;;5047055;28;20033;-78
2022/09/05 13:59:41;;;;;;;5.53;1.52;;;9.50;99.90;;;;;;5055050;28;20027;-78
2022/09/05 14:02:30;;;;;;;4.73;1.50;;;9.50;99.90;;;;;;5054541;28;20028;-77
2022/09/05 14:05:32;;;;;;;5.40;1.77;;;9.60;99.90;;;;;;5055113;28;20033;-77
2022/09/05 14:08:25;;;;;;;7.15;1.80;;;9.60;99.90;;;;;;4993391;28;20026;-77
2022/09/05 14:11:11;;;;;;;3.85;1.13;;;9.50;99.90;;;;;;5052981;28;20055;-79
2022/09/05 14:13:50;;;;;;;3.42;1.40;;;9.50;99.90;;;;;;5054433;28;20029;-75
2022/09/05 14:16:35;;;;;;;3.47;1.00;;;9.50;99.90;;;;;;5053030;28;20029;-77
2022/09/05 14:21:50;;;;;;;2.53;1.13;;;9.40;99.90;;;;;;5054373;28;20040;-78